createdAt,value
2019-03-22T00:00:41.275Z,0
2019-03-22T00:01:41.276Z,0
2019-03-22T00:02:41.344Z,0
2019-03-22T00:03:41.279Z,0
2019-03-22T00:04:41.348Z,0
2019-03-22T00:05:41.320Z,0
2019-03-22T00:06:41.314Z,0
2019-03-22T00:07:41.248Z,0
2019-03-22T00:08:41.329Z,0
2019-03-22T00:09:41.347Z,0
2019-03-22T00:10:41.329Z,0
2019-03-22T00:11:41.300Z,0
2019-03-22T00:12:41.326Z,0
2019-03-22T00:13:41.366Z,0
2019-03-22T00:14:41.372Z,0
2019-03-22T00:15:41.323Z,0
2019-03-22T00:16:41.351Z,0
2019-03-22T00:17:41.317Z,0
2019-03-22T00:18:41.264Z,0
2019-03-22T00:19:41.294Z,0
2019-03-22T00:20:41.421Z,0
2019-03-22T00:21:41.378Z,0
2019-03-22T00:22:41.395Z,0
2019-03-22T00:23:41.391Z,0
2019-03-22T00:24:41.378Z,0
2019-03-22T00:25:41.290Z,0
2019-03-22T00:26:41.297Z,0
2019-03-22T00:27:41.305Z,0
2019-03-22T00:28:41.362Z,0
2019-03-22T00:29:41.300Z,0
2019-03-22T00:30:41.380Z,0
2019-03-22T00:31:41.300Z,0
2019-03-22T00:32:41.365Z,0
2019-03-22T00:33:41.364Z,0
2019-03-22T00:34:41.302Z,0
2019-03-22T00:35:41.227Z,0
2019-03-22T00:36:41.416Z,0
2019-03-22T00:37:41.302Z,0
2019-03-22T00:38:41.297Z,0
2019-03-22T00:39:41.355Z,0
2019-03-22T00:40:41.329Z,0
2019-03-22T00:41:41.356Z,0
2019-03-22T00:42:41.243Z,0
2019-03-22T00:43:41.238Z,0
2019-03-22T00:44:41.363Z,0
2019-03-22T00:45:41.335Z,0
2019-03-22T00:46:41.297Z,0
2019-03-22T00:47:41.374Z,0
2019-03-22T00:48:41.332Z,0
2019-03-22T00:49:41.346Z,0
2019-03-22T00:50:41.411Z,0
2019-03-22T00:51:41.380Z,0
2019-03-22T00:52:41.347Z,0
2019-03-22T00:53:41.377Z,0
2019-03-22T00:54:41.359Z,0
2019-03-22T00:55:41.343Z,0
2019-03-22T00:56:41.411Z,0
2019-03-22T00:57:41.408Z,0
2019-03-22T00:58:41.363Z,0
2019-03-22T00:59:41.409Z,0
2019-03-22T01:00:41.418Z,0
2019-03-22T01:01:41.348Z,0
2019-03-22T01:02:41.413Z,0
2019-03-22T01:03:41.408Z,0
2019-03-22T01:04:41.404Z,0
2019-03-22T01:05:41.319Z,0
2019-03-22T01:06:41.387Z,0
2019-03-22T01:07:41.319Z,0
2019-03-22T01:08:41.327Z,0
2019-03-22T01:09:41.329Z,0
2019-03-22T01:10:41.389Z,0
2019-03-22T01:11:41.389Z,0
2019-03-22T01:12:41.396Z,0
2019-03-22T01:13:41.327Z,0
2019-03-22T01:14:41.405Z,0
2019-03-22T01:15:41.328Z,0
2019-03-22T01:16:41.392Z,0
2019-03-22T01:17:41.433Z,0
2019-03-22T01:18:41.520Z,0
2019-03-22T01:19:41.336Z,0
2019-03-22T01:20:41.418Z,0
2019-03-22T01:21:41.355Z,0
2019-03-22T01:22:41.417Z,0
2019-03-22T01:23:41.415Z,0
2019-03-22T01:24:41.420Z,0
2019-03-22T01:25:41.480Z,0
2019-03-22T01:26:41.431Z,0
2019-03-22T01:27:41.650Z,0
2019-03-22T01:28:41.355Z,0
2019-03-22T01:29:41.419Z,0
2019-03-22T01:30:41.369Z,0
2019-03-22T01:31:41.316Z,0
2019-03-22T01:32:41.304Z,0
2019-03-22T01:33:41.380Z,0
2019-03-22T01:34:41.365Z,0
2019-03-22T01:35:41.415Z,0
2019-03-22T01:36:41.375Z,0
2019-03-22T01:37:41.450Z,0
2019-03-22T01:38:41.373Z,0
2019-03-22T01:39:41.414Z,0
2019-03-22T01:40:41.430Z,0
2019-03-22T01:41:41.384Z,0
2019-03-22T01:42:41.387Z,0
2019-03-22T01:43:41.417Z,0
2019-03-22T01:44:41.328Z,0
2019-03-22T01:45:41.425Z,0
2019-03-22T01:46:41.437Z,0
2019-03-22T01:47:41.435Z,0
2019-03-22T01:48:41.447Z,0
2019-03-22T01:49:41.438Z,0
2019-03-22T01:50:41.448Z,0
2019-03-22T01:51:41.437Z,0
2019-03-22T01:52:41.388Z,0
2019-03-22T01:53:41.372Z,0
2019-03-22T01:54:41.329Z,0
2019-03-22T01:55:41.447Z,0
2019-03-22T01:56:41.388Z,0
2019-03-22T01:57:52.562Z,0
2019-03-22T01:58:41.392Z,0
2019-03-22T01:59:41.441Z,0
2019-03-22T02:00:41.323Z,0
2019-03-22T02:01:41.457Z,0
2019-03-22T02:02:41.330Z,0
2019-03-22T02:03:41.470Z,0
2019-03-22T02:04:41.396Z,0
2019-03-22T02:05:41.368Z,0
2019-03-22T02:06:41.435Z,0
2019-03-22T02:07:41.496Z,0
2019-03-22T02:08:41.366Z,0
2019-03-22T02:09:41.432Z,0
2019-03-22T02:10:41.395Z,0
2019-03-22T02:11:41.433Z,0
2019-03-22T02:12:41.435Z,0
2019-03-22T02:13:41.436Z,0
2019-03-22T02:14:41.441Z,0
2019-03-22T02:15:41.391Z,0
2019-03-22T02:16:41.466Z,0
2019-03-22T02:17:41.474Z,0
2019-03-22T02:18:41.402Z,0
2019-03-22T02:19:41.463Z,0
2019-03-22T02:20:41.471Z,0
2019-03-22T02:21:41.398Z,0
2019-03-22T02:22:41.425Z,0
2019-03-22T02:23:41.417Z,0
2019-03-22T02:24:41.413Z,0
2019-03-22T02:25:41.303Z,0
2019-03-22T02:26:41.354Z,0
2019-03-22T02:27:41.393Z,0
2019-03-22T02:28:41.373Z,0
2019-03-22T02:29:41.392Z,0
2019-03-22T02:30:41.435Z,0
2019-03-22T02:31:41.430Z,0
2019-03-22T02:32:41.347Z,0
2019-03-22T02:33:41.341Z,0
2019-03-22T02:34:41.357Z,0
2019-03-22T02:35:41.359Z,0
2019-03-22T02:36:41.357Z,0
2019-03-22T02:37:41.335Z,0
2019-03-22T02:38:41.355Z,0
2019-03-22T02:39:41.591Z,0
2019-03-22T02:40:41.341Z,0
2019-03-22T02:41:41.320Z,0
2019-03-22T02:42:41.441Z,0
2019-03-22T02:43:41.316Z,0
2019-03-22T02:44:41.307Z,0
2019-03-22T02:45:41.401Z,0
2019-03-22T02:46:41.469Z,0
2019-03-22T02:47:41.526Z,0
2019-03-22T02:48:41.462Z,0
2019-03-22T02:49:41.464Z,0
2019-03-22T02:50:41.475Z,0
2019-03-22T02:51:41.466Z,0
2019-03-22T02:52:41.435Z,0
2019-03-22T02:53:41.351Z,0
2019-03-22T02:54:41.395Z,0
2019-03-22T02:55:41.549Z,0
2019-03-22T02:56:41.465Z,0
2019-03-22T02:57:41.473Z,0
2019-03-22T02:58:41.477Z,0
2019-03-22T02:59:41.495Z,0
2019-03-22T03:00:41.473Z,0
2019-03-22T03:01:41.469Z,0
2019-03-22T03:02:41.468Z,0
2019-03-22T03:03:41.529Z,0
2019-03-22T03:04:41.434Z,0
2019-03-22T03:05:41.473Z,0
2019-03-22T03:06:41.413Z,0
2019-03-22T03:07:41.428Z,0
2019-03-22T03:08:41.487Z,0
2019-03-22T03:09:41.417Z,0
2019-03-22T03:10:41.402Z,0
2019-03-22T03:11:41.408Z,0
2019-03-22T03:12:41.449Z,0
2019-03-22T03:13:41.490Z,0
2019-03-22T03:14:41.477Z,0
2019-03-22T03:15:41.512Z,0
2019-03-22T03:16:41.506Z,0
2019-03-22T03:17:41.446Z,0
2019-03-22T03:18:41.503Z,0
2019-03-22T03:19:41.505Z,0
2019-03-22T03:20:41.512Z,0
2019-03-22T03:21:41.480Z,0
2019-03-22T03:22:41.494Z,0
2019-03-22T03:23:41.509Z,0
2019-03-22T03:24:41.439Z,0
2019-03-22T03:25:41.498Z,0
2019-03-22T03:26:41.565Z,0
2019-03-22T03:27:41.443Z,0
2019-03-22T03:28:41.448Z,0
2019-03-22T03:29:41.438Z,0
2019-03-22T03:30:41.436Z,0
2019-03-22T03:31:41.466Z,0
2019-03-22T03:32:41.522Z,0
2019-03-22T03:33:41.510Z,0
2019-03-22T03:34:41.474Z,0
2019-03-22T03:35:41.504Z,0
2019-03-22T03:36:41.532Z,0
2019-03-22T03:37:41.494Z,0
2019-03-22T03:38:41.464Z,0
2019-03-22T03:39:41.506Z,0
2019-03-22T03:40:41.456Z,0
2019-03-22T03:41:41.447Z,0
2019-03-22T03:42:41.456Z,0
2019-03-22T03:43:41.499Z,0
2019-03-22T03:44:41.523Z,0
2019-03-22T03:45:41.497Z,0
2019-03-22T03:46:41.366Z,0
2019-03-22T03:47:41.427Z,0
2019-03-22T03:48:41.463Z,0
2019-03-22T03:49:41.467Z,0
2019-03-22T03:50:41.531Z,0
2019-03-22T03:51:41.430Z,0
2019-03-22T03:52:41.503Z,0
2019-03-22T03:53:41.484Z,0
2019-03-22T03:54:41.464Z,0
2019-03-22T03:55:41.445Z,0
2019-03-22T03:56:41.447Z,0
2019-03-22T03:57:41.502Z,0
2019-03-22T03:58:52.133Z,0
2019-03-22T03:59:41.439Z,0
2019-03-22T04:00:41.508Z,0
2019-03-22T04:01:41.521Z,0
2019-03-22T04:02:41.449Z,0
2019-03-22T04:03:41.443Z,0
2019-03-22T04:04:41.448Z,0
2019-03-22T04:05:41.517Z,0
2019-03-22T04:06:41.515Z,0
2019-03-22T04:07:41.422Z,0
2019-03-22T04:08:41.451Z,0
2019-03-22T04:09:41.508Z,0
2019-03-22T04:10:41.427Z,0
2019-03-22T04:11:41.391Z,0
2019-03-22T04:12:41.431Z,0
2019-03-22T04:13:41.508Z,0
2019-03-22T04:14:41.512Z,0
2019-03-22T04:15:41.461Z,0
2019-03-22T04:16:41.459Z,0
2019-03-22T04:17:41.531Z,0
2019-03-22T04:18:41.562Z,0
2019-03-22T04:19:41.525Z,0
2019-03-22T04:20:41.458Z,0
2019-03-22T04:21:41.527Z,0
2019-03-22T04:22:41.466Z,0
2019-03-22T04:23:41.427Z,0
2019-03-22T04:24:41.533Z,0
2019-03-22T04:25:41.569Z,0
2019-03-22T04:26:41.604Z,0
2019-03-22T04:27:41.489Z,0
2019-03-22T04:28:41.565Z,0
2019-03-22T04:29:41.534Z,0
2019-03-22T04:30:41.490Z,0
2019-03-22T04:31:41.558Z,0
2019-03-22T04:32:41.493Z,0
2019-03-22T04:33:41.509Z,0
2019-03-22T04:34:41.562Z,0
2019-03-22T04:35:41.482Z,0
2019-03-22T04:36:41.439Z,0
2019-03-22T04:37:41.504Z,0
2019-03-22T04:38:41.610Z,0
2019-03-22T04:39:41.563Z,0
2019-03-22T04:40:41.579Z,0
2019-03-22T04:41:41.445Z,0
2019-03-22T04:42:41.605Z,0
2019-03-22T04:43:41.550Z,0
2019-03-22T04:44:41.443Z,0
2019-03-22T04:45:41.570Z,0
2019-03-22T04:46:41.575Z,0
2019-03-22T04:47:41.448Z,0
2019-03-22T04:48:41.514Z,0
2019-03-22T04:49:41.462Z,0
2019-03-22T04:50:41.515Z,0
2019-03-22T04:51:41.544Z,0
2019-03-22T04:52:41.559Z,0
2019-03-22T04:53:41.592Z,0
2019-03-22T04:54:41.547Z,0
2019-03-22T04:55:41.447Z,0
2019-03-22T04:56:41.523Z,0
2019-03-22T04:57:41.579Z,0
2019-03-22T04:58:41.455Z,0
2019-03-22T04:59:41.530Z,0
2019-03-22T05:00:41.606Z,0
2019-03-22T05:01:41.515Z,0
2019-03-22T05:02:41.495Z,0
2019-03-22T05:03:41.588Z,0
2019-03-22T05:04:41.537Z,0
2019-03-22T05:05:41.458Z,0
2019-03-22T05:06:41.559Z,0
2019-03-22T05:07:41.523Z,0
2019-03-22T05:08:41.589Z,0
2019-03-22T05:09:41.540Z,0
2019-03-22T05:10:41.618Z,0
2019-03-22T05:11:41.518Z,0
2019-03-22T05:12:41.522Z,0
2019-03-22T05:13:41.525Z,0
2019-03-22T05:14:41.520Z,0
2019-03-22T05:15:41.496Z,0
2019-03-22T05:16:41.496Z,0
2019-03-22T05:17:41.566Z,0
2019-03-22T05:18:43.937Z,0
2019-03-22T05:19:41.502Z,0
2019-03-22T05:20:41.570Z,0
2019-03-22T05:21:41.507Z,0
2019-03-22T05:22:41.497Z,0
2019-03-22T05:23:41.568Z,0
2019-03-22T05:24:41.510Z,0
2019-03-22T05:25:41.509Z,0
2019-03-22T05:26:41.534Z,0
2019-03-22T05:27:41.506Z,0
2019-03-22T05:28:41.478Z,0
2019-03-22T05:29:41.517Z,0
2019-03-22T05:30:41.480Z,0
2019-03-22T05:31:41.483Z,0
2019-03-22T05:32:41.510Z,0
2019-03-22T05:33:41.486Z,0
2019-03-22T05:34:41.614Z,0
2019-03-22T05:35:41.547Z,0
2019-03-22T05:36:41.611Z,0
2019-03-22T05:37:41.607Z,0
2019-03-22T05:38:41.580Z,0
2019-03-22T05:39:41.622Z,0
2019-03-22T05:40:41.598Z,0
2019-03-22T05:41:41.566Z,0
2019-03-22T05:42:41.608Z,0
2019-03-22T05:43:41.592Z,0
2019-03-22T05:44:41.598Z,0
2019-03-22T05:45:41.524Z,0
2019-03-22T05:46:41.610Z,0
2019-03-22T05:47:41.600Z,0
2019-03-22T05:48:41.546Z,0
2019-03-22T05:49:41.597Z,0
2019-03-22T05:50:41.616Z,0
2019-03-22T05:51:41.605Z,0
2019-03-22T05:52:41.540Z,0
2019-03-22T05:53:41.495Z,13
2019-03-22T05:54:41.603Z,13
2019-03-22T05:55:41.451Z,14
2019-03-22T05:56:41.513Z,15
2019-03-22T05:57:41.541Z,15
2019-03-22T05:58:41.590Z,17
2019-03-22T05:59:42.741Z,21
2019-03-22T06:00:41.592Z,25
2019-03-22T06:01:41.584Z,27
2019-03-22T06:02:41.593Z,24
2019-03-22T06:03:41.581Z,26
2019-03-22T06:04:41.519Z,31
2019-03-22T06:05:41.584Z,35
2019-03-22T06:06:41.562Z,34
2019-03-22T06:07:41.599Z,33
2019-03-22T06:08:41.496Z,35
2019-03-22T06:09:41.599Z,36
2019-03-22T06:10:41.505Z,35
2019-03-22T06:11:41.570Z,40
2019-03-22T06:12:41.504Z,40
2019-03-22T06:13:44.252Z,37
2019-03-22T06:14:41.632Z,34
2019-03-22T06:15:41.619Z,36
2019-03-22T06:16:41.549Z,36
2019-03-22T06:17:51.233Z,41
2019-03-22T06:18:41.619Z,42
2019-03-22T06:19:41.624Z,43
2019-03-22T06:20:41.630Z,44
2019-03-22T06:21:41.618Z,43
2019-03-22T06:22:41.588Z,44
2019-03-22T06:23:41.546Z,46
2019-03-22T06:24:41.550Z,52
2019-03-22T06:25:41.592Z,54
2019-03-22T06:26:41.612Z,56
2019-03-22T06:27:41.552Z,56
2019-03-22T06:28:41.578Z,52
2019-03-22T06:29:53.390Z,58
2019-03-22T06:30:41.597Z,64
2019-03-22T06:31:41.608Z,69
2019-03-22T06:32:41.613Z,69
2019-03-22T06:33:41.519Z,71
2019-03-22T06:34:41.583Z,78
2019-03-22T06:35:41.560Z,85
2019-03-22T06:36:41.572Z,90
2019-03-22T06:37:41.633Z,91
2019-03-22T06:38:41.625Z,100
2019-03-22T06:39:41.546Z,93
2019-03-22T06:40:41.564Z,81
2019-03-22T06:41:41.562Z,95
2019-03-22T06:42:41.645Z,94
2019-03-22T06:43:41.583Z,82
2019-03-22T06:44:41.589Z,88
2019-03-22T06:45:41.526Z,95
2019-03-22T06:46:41.575Z,95
2019-03-22T06:47:41.629Z,103
2019-03-22T06:48:41.592Z,105
2019-03-22T06:49:41.536Z,104
2019-03-22T06:50:41.566Z,102
2019-03-22T06:51:41.567Z,97
2019-03-22T06:52:41.646Z,96
2019-03-22T06:53:41.583Z,106
2019-03-22T06:54:41.650Z,104
2019-03-22T06:55:41.582Z,108
2019-03-22T06:56:41.714Z,112
2019-03-22T06:57:41.588Z,115
2019-03-22T06:58:41.593Z,117
2019-03-22T06:59:41.540Z,124
2019-03-22T07:00:41.543Z,131
2019-03-22T07:01:41.645Z,135
2019-03-22T07:02:41.650Z,124
2019-03-22T07:03:41.637Z,121
2019-03-22T07:04:41.593Z,120
2019-03-22T07:05:41.713Z,120
2019-03-22T07:06:41.581Z,124
2019-03-22T07:07:41.652Z,122
2019-03-22T07:08:41.577Z,120
2019-03-22T07:09:41.586Z,117
2019-03-22T07:10:41.655Z,115
2019-03-22T07:11:42.025Z,107
2019-03-22T07:12:41.583Z,106
2019-03-22T07:13:41.660Z,107
2019-03-22T07:14:41.616Z,108
2019-03-22T07:15:41.584Z,110
2019-03-22T07:16:41.586Z,109
2019-03-22T07:17:41.716Z,110
2019-03-22T07:18:41.587Z,111
2019-03-22T07:19:41.603Z,111
2019-03-22T07:20:41.599Z,103
2019-03-22T07:21:41.632Z,106
2019-03-22T07:22:41.663Z,106
2019-03-22T07:23:41.656Z,107
2019-03-22T07:24:41.618Z,101
2019-03-22T07:25:41.610Z,105
2019-03-22T07:26:41.666Z,103
2019-03-22T07:27:41.616Z,93
2019-03-22T07:28:41.670Z,98
2019-03-22T07:29:41.672Z,102
2019-03-22T07:30:41.675Z,111
2019-03-22T07:31:41.605Z,106
2019-03-22T07:32:41.679Z,104
2019-03-22T07:33:41.603Z,111
2019-03-22T07:34:41.672Z,115
2019-03-22T07:35:41.678Z,140
2019-03-22T07:36:41.617Z,141
2019-03-22T07:37:41.677Z,159
2019-03-22T07:38:41.674Z,154
2019-03-22T07:39:41.691Z,144
2019-03-22T07:40:41.620Z,142
2019-03-22T07:41:41.679Z,122
2019-03-22T07:42:41.610Z,153
2019-03-22T07:43:41.615Z,162
2019-03-22T07:44:41.685Z,166
2019-03-22T07:45:41.606Z,160
2019-03-22T07:46:41.687Z,143
2019-03-22T07:47:41.690Z,137
2019-03-22T07:48:41.683Z,137
2019-03-22T07:49:41.613Z,133
2019-03-22T07:50:41.671Z,127
2019-03-22T07:51:41.686Z,156
2019-03-22T07:52:41.629Z,166
2019-03-22T07:53:41.689Z,157
2019-03-22T07:54:41.617Z,153
2019-03-22T07:55:41.697Z,151
2019-03-22T07:56:41.613Z,159
2019-03-22T07:57:41.608Z,150
2019-03-22T07:58:41.575Z,159
2019-03-22T07:59:41.671Z,177
2019-03-22T08:00:41.583Z,191
2019-03-22T08:01:41.667Z,214
2019-03-22T08:02:41.681Z,181
2019-03-22T08:03:41.637Z,201
2019-03-22T08:04:41.675Z,232
2019-03-22T08:05:51.008Z,254
2019-03-22T08:06:41.613Z,246
2019-03-22T08:07:41.611Z,227
2019-03-22T08:08:41.685Z,208
2019-03-22T08:09:41.689Z,216
2019-03-22T08:10:41.715Z,214
2019-03-22T08:11:41.735Z,226
2019-03-22T08:12:41.624Z,251
2019-03-22T08:13:41.689Z,271
2019-03-22T08:14:41.666Z,226
2019-03-22T08:15:41.707Z,261
2019-03-22T08:16:41.631Z,253
2019-03-22T08:17:41.707Z,255
2019-03-22T08:18:41.657Z,247
2019-03-22T08:19:41.673Z,243
2019-03-22T08:20:41.722Z,259
2019-03-22T08:21:41.712Z,260
2019-03-22T08:22:41.715Z,263
2019-03-22T08:23:41.749Z,260
2019-03-22T08:24:41.750Z,253
2019-03-22T08:25:43.555Z,257
2019-03-22T08:26:41.710Z,257
2019-03-22T08:27:41.666Z,257
2019-03-22T08:28:41.669Z,251
2019-03-22T08:29:41.680Z,260
2019-03-22T08:30:43.285Z,265
2019-03-22T08:31:41.670Z,278
2019-03-22T08:32:41.710Z,294
2019-03-22T08:33:41.644Z,313
2019-03-22T08:34:41.656Z,326
2019-03-22T08:35:41.740Z,334
2019-03-22T08:36:41.617Z,335
2019-03-22T08:37:52.035Z,347
2019-03-22T08:38:41.739Z,356
2019-03-22T08:39:41.755Z,343
2019-03-22T08:40:41.767Z,356
2019-03-22T08:41:41.733Z,370
2019-03-22T08:42:41.752Z,361
2019-03-22T08:43:41.739Z,249
2019-03-22T08:44:41.659Z,205
2019-03-22T08:45:41.726Z,283
2019-03-22T08:46:41.680Z,354
2019-03-22T08:47:41.746Z,313
2019-03-22T08:48:41.653Z,371
2019-03-22T08:49:41.882Z,437
2019-03-22T08:50:41.725Z,526
2019-03-22T08:51:41.685Z,578
2019-03-22T08:52:41.685Z,583
2019-03-22T08:53:54.365Z,799
2019-03-22T08:54:41.666Z,821
2019-03-22T08:55:41.654Z,841
2019-03-22T08:56:41.778Z,810
2019-03-22T08:57:41.737Z,796
2019-03-22T08:58:41.661Z,803
2019-03-22T08:59:41.666Z,789
2019-03-22T09:00:41.662Z,770
2019-03-22T09:01:41.753Z,749
2019-03-22T09:02:41.742Z,756
2019-03-22T09:03:41.765Z,638
2019-03-22T09:04:41.699Z,646
2019-03-22T09:05:41.735Z,422
2019-03-22T09:06:41.722Z,678
2019-03-22T09:07:41.598Z,679
2019-03-22T09:08:41.687Z,678
2019-03-22T09:09:42.060Z,658
2019-03-22T09:10:41.641Z,671
2019-03-22T09:11:41.686Z,669
2019-03-22T09:12:41.650Z,691
2019-03-22T09:13:41.655Z,659
2019-03-22T09:14:41.721Z,696
2019-03-22T09:15:42.139Z,677
2019-03-22T09:16:41.672Z,692
2019-03-22T09:17:41.672Z,687
2019-03-22T09:18:41.720Z,690
2019-03-22T09:19:41.690Z,682
2019-03-22T09:20:41.761Z,680
2019-03-22T09:21:41.820Z,678
2019-03-22T09:22:41.768Z,680
2019-03-22T09:23:41.676Z,686
2019-03-22T09:24:41.708Z,689
2019-03-22T09:25:41.781Z,693
2019-03-22T09:26:47.520Z,694
2019-03-22T09:27:41.740Z,688
2019-03-22T09:28:41.748Z,689
2019-03-22T09:29:41.681Z,697
2019-03-22T09:30:41.759Z,702
2019-03-22T09:31:41.726Z,706
2019-03-22T09:32:41.701Z,691
2019-03-22T09:33:41.743Z,699
2019-03-22T09:34:41.721Z,714
2019-03-22T09:35:41.762Z,714
2019-03-22T09:36:41.733Z,716
2019-03-22T09:37:41.757Z,709
2019-03-22T09:38:41.756Z,708
2019-03-22T09:39:41.735Z,709
2019-03-22T09:40:41.682Z,715
2019-03-22T09:41:41.759Z,730
2019-03-22T09:42:41.688Z,732
2019-03-22T09:43:41.825Z,733
2019-03-22T09:44:43.781Z,734
2019-03-22T09:45:41.728Z,726
2019-03-22T09:46:41.764Z,737
2019-03-22T09:47:41.732Z,737
2019-03-22T09:48:41.764Z,740
2019-03-22T09:49:41.735Z,740
2019-03-22T09:50:41.765Z,737
2019-03-22T09:51:41.687Z,731
2019-03-22T09:52:41.706Z,732
2019-03-22T09:53:41.776Z,744
2019-03-22T09:54:41.691Z,744
2019-03-22T09:55:41.771Z,749
2019-03-22T09:56:46.758Z,751
2019-03-22T09:57:41.784Z,749
2019-03-22T09:58:41.771Z,755
2019-03-22T09:59:41.773Z,756
2019-03-22T10:00:41.803Z,759
2019-03-22T10:01:41.728Z,760
2019-03-22T10:02:41.723Z,762
2019-03-22T10:03:42.734Z,755
2019-03-22T10:04:41.799Z,759
2019-03-22T10:05:41.704Z,769
2019-03-22T10:06:41.781Z,769
2019-03-22T10:07:41.781Z,762
2019-03-22T10:08:41.751Z,770
2019-03-22T10:09:41.746Z,765
2019-03-22T10:10:41.781Z,765
2019-03-22T10:11:41.781Z,772
2019-03-22T10:12:41.766Z,774
2019-03-22T10:13:41.793Z,774
2019-03-22T10:14:41.762Z,775
2019-03-22T10:15:41.754Z,771
2019-03-22T10:16:41.786Z,775
2019-03-22T10:17:41.836Z,780
2019-03-22T10:18:41.852Z,778
2019-03-22T10:19:42.267Z,780
2019-03-22T10:20:41.787Z,775
2019-03-22T10:21:41.815Z,781
2019-03-22T10:22:41.842Z,778
2019-03-22T10:23:41.806Z,782
2019-03-22T10:24:41.737Z,784
2019-03-22T10:25:41.744Z,788
2019-03-22T10:26:41.791Z,790
2019-03-22T10:27:41.813Z,790
2019-03-22T10:28:41.808Z,789
2019-03-22T10:29:41.820Z,791
2019-03-22T10:30:41.872Z,792
2019-03-22T10:31:41.807Z,792
2019-03-22T10:32:41.806Z,791
2019-03-22T10:33:41.786Z,791
2019-03-22T10:34:41.833Z,796
2019-03-22T10:35:41.734Z,796
2019-03-22T10:36:41.715Z,800
2019-03-22T10:37:41.746Z,800
2019-03-22T10:38:41.855Z,800
2019-03-22T10:39:41.723Z,800
2019-03-22T10:40:41.862Z,796
2019-03-22T10:41:41.773Z,803
2019-03-22T10:42:41.793Z,805
2019-03-22T10:43:41.728Z,806
2019-03-22T10:44:41.847Z,806
2019-03-22T10:45:41.722Z,803
2019-03-22T10:46:41.792Z,805
2019-03-22T10:47:41.798Z,810
2019-03-22T10:48:41.753Z,811
2019-03-22T10:49:42.297Z,814
2019-03-22T10:50:41.730Z,799
2019-03-22T10:51:41.737Z,817
2019-03-22T10:52:41.735Z,820
2019-03-22T10:53:41.841Z,817
2019-03-22T10:54:41.729Z,821
2019-03-22T10:55:41.805Z,818
2019-03-22T10:56:41.729Z,810
2019-03-22T10:57:41.727Z,820
2019-03-22T10:58:41.716Z,815
2019-03-22T10:59:41.687Z,812
2019-03-22T11:00:41.683Z,814
2019-03-22T11:01:48.658Z,816
2019-03-22T11:02:41.810Z,823
2019-03-22T11:03:41.762Z,820
2019-03-22T11:04:41.690Z,819
2019-03-22T11:05:41.801Z,818
2019-03-22T11:06:41.745Z,813
2019-03-22T11:07:41.815Z,805
2019-03-22T11:08:41.750Z,779
2019-03-22T11:09:41.853Z,787
2019-03-22T11:10:41.751Z,805
2019-03-22T11:11:41.817Z,803
2019-03-22T11:12:41.742Z,798
2019-03-22T11:13:41.751Z,803
2019-03-22T11:14:41.819Z,813
2019-03-22T11:15:48.407Z,810
2019-03-22T11:16:41.759Z,820
2019-03-22T11:17:41.832Z,820
2019-03-22T11:18:41.836Z,818
2019-03-22T11:19:41.762Z,817
2019-03-22T11:20:41.775Z,818
2019-03-22T11:21:41.778Z,805
2019-03-22T11:22:41.735Z,819
2019-03-22T11:23:41.794Z,820
2019-03-22T11:24:41.856Z,824
2019-03-22T11:25:41.838Z,823
2019-03-22T11:26:41.824Z,806
2019-03-22T11:27:41.841Z,822
2019-03-22T11:28:41.775Z,818
2019-03-22T11:29:41.839Z,821
2019-03-22T11:30:41.767Z,820
2019-03-22T11:31:41.838Z,821
2019-03-22T11:32:41.766Z,822
2019-03-22T11:33:41.854Z,810
2019-03-22T11:34:41.838Z,817
2019-03-22T11:35:41.732Z,821
2019-03-22T11:36:41.844Z,824
2019-03-22T11:37:41.775Z,825
2019-03-22T11:38:41.793Z,826
2019-03-22T11:39:41.782Z,807
2019-03-22T11:40:41.771Z,807
2019-03-22T11:41:41.854Z,825
2019-03-22T11:43:41.782Z,816
2019-03-22T11:44:41.868Z,805
2019-03-22T11:45:41.778Z,807
2019-03-22T11:46:41.779Z,802
2019-03-22T11:47:41.874Z,813
2019-03-22T11:48:41.780Z,802
2019-03-22T11:49:41.798Z,803
2019-03-22T11:50:41.780Z,812
2019-03-22T11:51:41.852Z,814
2019-03-22T11:52:41.876Z,803
2019-03-22T11:53:41.861Z,819
2019-03-22T11:54:41.800Z,818
2019-03-22T11:55:41.787Z,811
2019-03-22T11:56:41.791Z,809
2019-03-22T11:57:41.792Z,808
2019-03-22T11:58:41.831Z,800
2019-03-22T11:59:41.787Z,814
2019-03-22T12:00:41.871Z,782
2019-03-22T12:01:41.829Z,812
2019-03-22T12:02:41.855Z,805
2019-03-22T12:03:41.793Z,806
2019-03-22T12:04:41.858Z,804
2019-03-22T12:05:41.863Z,815
2019-03-22T12:06:41.869Z,819
2019-03-22T12:07:41.861Z,815
2019-03-22T12:08:41.800Z,805
2019-03-22T12:09:41.796Z,807
2019-03-22T12:10:41.880Z,798
2019-03-22T12:11:42.245Z,800
2019-03-22T12:12:41.798Z,800
2019-03-22T12:13:41.818Z,802
2019-03-22T12:14:41.868Z,800
2019-03-22T12:15:41.868Z,779
2019-03-22T12:16:41.818Z,778
2019-03-22T12:17:41.868Z,775
2019-03-22T12:18:41.863Z,786
2019-03-22T12:19:41.793Z,787
2019-03-22T12:20:41.862Z,786
2019-03-22T12:21:41.787Z,776
2019-03-22T12:22:41.867Z,777
2019-03-22T12:23:41.794Z,790
2019-03-22T12:24:41.763Z,790
2019-03-22T12:25:41.796Z,790
2019-03-22T12:26:41.867Z,793
2019-03-22T12:27:41.827Z,777
2019-03-22T12:28:41.889Z,791
2019-03-22T12:29:41.899Z,788
2019-03-22T12:30:41.808Z,784
2019-03-22T12:31:41.882Z,787
2019-03-22T12:32:41.823Z,780
2019-03-22T12:33:41.779Z,767
2019-03-22T12:34:41.810Z,777
2019-03-22T12:35:42.673Z,758
2019-03-22T12:36:41.945Z,773
2019-03-22T12:37:41.886Z,777
2019-03-22T12:38:41.893Z,778
2019-03-22T12:39:42.087Z,763
2019-03-22T12:40:41.885Z,772
2019-03-22T12:41:41.857Z,779
2019-03-22T12:42:41.817Z,770
2019-03-22T12:43:41.833Z,764
2019-03-22T12:44:41.830Z,758
2019-03-22T12:45:41.920Z,749
2019-03-22T12:46:41.893Z,769
2019-03-22T12:47:41.847Z,766
2019-03-22T12:48:41.804Z,763
2019-03-22T12:49:41.882Z,772
2019-03-22T12:50:41.876Z,750
2019-03-22T12:51:41.886Z,747
2019-03-22T12:52:41.876Z,724
2019-03-22T12:53:41.799Z,736
2019-03-22T12:54:41.811Z,737
2019-03-22T12:55:41.893Z,749
2019-03-22T12:56:41.812Z,743
2019-03-22T12:57:41.846Z,736
2019-03-22T12:58:41.838Z,738
2019-03-22T12:59:41.901Z,743
2019-03-22T13:00:41.860Z,746
2019-03-22T13:01:41.920Z,748
2019-03-22T13:02:42.578Z,743
2019-03-22T13:03:41.900Z,733
2019-03-22T13:04:41.902Z,741
2019-03-22T13:05:41.849Z,739
2019-03-22T13:06:41.907Z,738
2019-03-22T13:07:41.835Z,733
2019-03-22T13:08:41.865Z,730
2019-03-22T13:09:41.905Z,719
2019-03-22T13:10:41.842Z,715
2019-03-22T13:11:41.868Z,715
2019-03-22T13:12:41.836Z,713
2019-03-22T13:13:41.853Z,716
2019-03-22T13:14:41.926Z,721
2019-03-22T13:15:41.838Z,715
2019-03-22T13:16:41.854Z,717
2019-03-22T13:17:41.849Z,708
2019-03-22T13:18:49.769Z,706
2019-03-22T13:19:41.911Z,704
2019-03-22T13:20:41.915Z,706
2019-03-22T13:21:41.916Z,693
2019-03-22T13:22:41.929Z,696
2019-03-22T13:23:41.913Z,697
2019-03-22T13:24:41.915Z,695
2019-03-22T13:25:41.861Z,696
2019-03-22T13:26:41.916Z,693
2019-03-22T13:27:41.848Z,693
2019-03-22T13:28:41.849Z,694
2019-03-22T13:29:41.921Z,694
2019-03-22T13:30:41.920Z,688
2019-03-22T13:31:41.923Z,687
2019-03-22T13:32:41.864Z,685
2019-03-22T13:33:41.857Z,687
2019-03-22T13:34:41.914Z,677
2019-03-22T13:35:41.856Z,678
2019-03-22T13:36:41.928Z,678
2019-03-22T13:37:41.841Z,675
2019-03-22T13:38:41.861Z,678
2019-03-22T13:39:41.844Z,668
2019-03-22T13:40:41.917Z,674
2019-03-22T13:41:41.885Z,668
2019-03-22T13:42:41.831Z,662
2019-03-22T13:43:41.850Z,649
2019-03-22T13:44:41.921Z,634
2019-03-22T13:45:41.923Z,629
2019-03-22T13:46:41.921Z,648
2019-03-22T13:47:41.929Z,651
2019-03-22T13:49:41.942Z,645
2019-03-22T13:50:41.867Z,645
2019-03-22T13:51:41.933Z,636
2019-03-22T13:52:41.933Z,642
2019-03-22T13:53:41.867Z,636
2019-03-22T13:54:42.000Z,637
2019-03-22T13:55:41.868Z,634
2019-03-22T13:56:41.941Z,633
2019-03-22T13:57:41.873Z,618
2019-03-22T13:58:41.879Z,626
2019-03-22T13:59:41.885Z,624
2019-03-22T14:00:41.954Z,622
2019-03-22T14:01:41.874Z,621
2019-03-22T14:02:41.872Z,620
2019-03-22T14:03:41.940Z,606
2019-03-22T14:04:41.873Z,608
2019-03-22T14:05:41.951Z,608
2019-03-22T14:06:41.949Z,605
2019-03-22T14:07:41.880Z,607
2019-03-22T14:08:41.940Z,603
2019-03-22T14:09:41.947Z,392
2019-03-22T14:10:41.893Z,594
2019-03-22T14:11:41.881Z,597
2019-03-22T14:12:41.839Z,595
2019-03-22T14:13:41.947Z,594
2019-03-22T14:14:41.882Z,589